sensor_id;sensor_type;location;lat;lon;timestamp;P1;durP1;ratioP1;P2;durP2;ratioP2
19814;SDS011;10067;53.092;8.800;2023-05-10T00:00:34;65.75;;;21.58;;
19814;SDS011;10067;53.092;8.800;2023-05-10T00:03:02;30.98;;;11.20;;
19814;SDS011;10067;53.092;8.800;2023-05-10T00:05:29;17.70;;;6.47;;
19814;SDS011;10067;53.092;8.800;2023-05-10T00:07:56;14.52;;;6.05;;
19814;SDS011;10067;53.092;8.800;2023-05-10T00:10:22;21.35;;;6.40;;
19814;SDS011;10067;53.092;8.800;2023-05-10T00:12:49;16.33;;;6.50;;
19814;SDS011;10067;53.092;8.800;2023-05-10T00:15:15;10.30;;;4.93;;
19814;SDS011;10067;53.092;8.800;2023-05-10T00:17:42;11.98;;;4.72;;
19814;SDS011;10067;53.092;8.800;2023-05-10T00:20:10;9.77;;;4.43;;
19814;SDS011;10067;53.092;8.800;2023-05-10T00:22:36;8.10;;;4.55;;
19814;SDS011;10067;53.092;8.800;2023-05-10T00:25:03;8.88;;;5.03;;
19814;SDS011;10067;53.092;8.800;2023-05-10T00:27:30;5.40;;;3.53;;
19814;SDS011;10067;53.092;8.800;2023-05-10T00:29:56;7.38;;;3.53;;
19814;SDS011;10067;53.092;8.800;2023-05-10T00:32:23;6.50;;;4.15;;
19814;SDS011;10067;53.092;8.800;2023-05-10T00:34:49;8.02;;;3.38;;
19814;SDS011;10067;53.092;8.800;2023-05-10T00:37:17;9.73;;;3.63;;
19814;SDS011;10067;53.092;8.800;2023-05-10T00:39:43;7.25;;;3.28;;
19814;SDS011;10067;53.092;8.800;2023-05-10T00:42:10;6.85;;;3.97;;
19814;SDS011;10067;53.092;8.800;2023-05-10T00:44:36;7.30;;;4.05;;
19814;SDS011;10067;53.092;8.800;2023-05-10T00:47:02;8.88;;;6.13;;
19814;SDS011;10067;53.092;8.800;2023-05-10T00:49:29;8.02;;;4.28;;
19814;SDS011;10067;53.092;8.800;2023-05-10T00:51:56;6.60;;;3.80;;
19814;SDS011;10067;53.092;8.800;2023-05-10T00:54:24;6.88;;;3.60;;
19814;SDS011;10067;53.092;8.800;2023-05-10T00:56:50;6.18;;;3.17;;
19814;SDS011;10067;53.092;8.800;2023-05-10T00:59:17;6.50;;;3.55;;
19814;SDS011;10067;53.092;8.800;2023-05-10T01:01:44;5.47;;;3.30;;
19814;SDS011;10067;53.092;8.800;2023-05-10T01:04:11;4.07;;;3.05;;
19814;SDS011;10067;53.092;8.800;2023-05-10T01:06:38;11.57;;;5.95;;
19814;SDS011;10067;53.092;8.800;2023-05-10T01:09:04;6.53;;;3.70;;
19814;SDS011;10067;53.092;8.800;2023-05-10T01:11:32;4.75;;;3.20;;
19814;SDS011;10067;53.092;8.800;2023-05-10T01:13:59;7.25;;;3.58;;
19814;SDS011;10067;53.092;8.800;2023-05-10T01:16:25;5.32;;;3.17;;
19814;SDS011;10067;53.092;8.800;2023-05-10T01:18:52;7.40;;;3.30;;
19814;SDS011;10067;53.092;8.800;2023-05-10T01:21:21;7.10;;;3.67;;
19814;SDS011;10067;53.092;8.800;2023-05-10T01:26:39;4.22;;;3.30;;
19814;SDS011;10067;53.092;8.800;2023-05-10T01:29:12;4.65;;;2.83;;
19814;SDS011;10067;53.092;8.800;2023-05-10T01:34:27;6.32;;;3.42;;
19814;SDS011;10067;53.092;8.800;2023-05-10T01:36:58;6.55;;;3.35;;
19814;SDS011;10067;53.092;8.800;2023-05-10T01:39:30;4.53;;;2.92;;
19814;SDS011;10067;53.092;8.800;2023-05-10T01:41:59;5.53;;;3.25;;
19814;SDS011;10067;53.092;8.800;2023-05-10T01:44:29;6.43;;;2.95;;
19814;SDS011;10067;53.092;8.800;2023-05-10T01:46:57;6.20;;;3.60;;
19814;SDS011;10067;53.092;8.800;2023-05-10T01:49:29;7.75;;;3.10;;
19814;SDS011;10067;53.092;8.800;2023-05-10T01:51:58;6.05;;;3.35;;
19814;SDS011;10067;53.092;8.800;2023-05-10T01:54:25;9.00;;;4.03;;
19814;SDS011;10067;53.092;8.800;2023-05-10T01:56:55;5.95;;;3.25;;
19814;SDS011;10067;53.092;8.800;2023-05-10T01:59:23;8.80;;;3.80;;
19814;SDS011;10067;53.092;8.800;2023-05-10T02:01:54;4.25;;;3.33;;
19814;SDS011;10067;53.092;8.800;2023-05-10T02:04:20;4.60;;;3.22;;
19814;SDS011;10067;53.092;8.800;2023-05-10T02:06:49;5.93;;;3.63;;
19814;SDS011;10067;53.092;8.800;2023-05-10T02:09:16;8.27;;;3.30;;
19814;SDS011;10067;53.092;8.800;2023-05-10T02:11:44;6.88;;;4.00;;
19814;SDS011;10067;53.092;8.800;2023-05-10T02:14:10;8.15;;;3.65;;
19814;SDS011;10067;53.092;8.800;2023-05-10T02:16:37;7.70;;;3.85;;
19814;SDS011;10067;53.092;8.800;2023-05-10T02:19:05;8.32;;;3.72;;
19814;SDS011;10067;53.092;8.800;2023-05-10T02:21:34;8.57;;;3.85;;
19814;SDS011;10067;53.092;8.800;2023-05-10T02:24:03;7.38;;;3.60;;
19814;SDS011;10067;53.092;8.800;2023-05-10T02:26:30;8.63;;;3.92;;
19814;SDS011;10067;53.092;8.800;2023-05-10T02:28:57;7.28;;;3.63;;
19814;SDS011;10067;53.092;8.800;2023-05-10T02:31:24;11.50;;;3.90;;
19814;SDS011;10067;53.092;8.800;2023-05-10T02:33:51;5.75;;;3.60;;
19814;SDS011;10067;53.092;8.800;2023-05-10T02:36:19;8.45;;;4.78;;
19814;SDS011;10067;53.092;8.800;2023-05-10T02:38:47;7.03;;;3.63;;
19814;SDS011;10067;53.092;8.800;2023-05-10T02:41:16;6.65;;;3.78;;
19814;SDS011;10067;53.092;8.800;2023-05-10T02:43:42;7.45;;;3.65;;
19814;SDS011;10067;53.092;8.800;2023-05-10T02:46:09;6.82;;;3.65;;
19814;SDS011;10067;53.092;8.800;2023-05-10T02:48:35;6.07;;;3.70;;
19814;SDS011;10067;53.092;8.800;2023-05-10T02:51:04;7.85;;;3.75;;
19814;SDS011;10067;53.092;8.800;2023-05-10T02:53:33;7.78;;;4.07;;
19814;SDS011;10067;53.092;8.800;2023-05-10T02:56:00;9.27;;;3.83;;
19814;SDS011;10067;53.092;8.800;2023-05-10T02:58:30;5.30;;;3.78;;
19814;SDS011;10067;53.092;8.800;2023-05-10T03:00:56;8.98;;;4.57;;
19814;SDS011;10067;53.092;8.800;2023-05-10T03:03:23;8.48;;;4.35;;
19814;SDS011;10067;53.092;8.800;2023-05-10T03:05:49;11.95;;;4.43;;
19814;SDS011;10067;53.092;8.800;2023-05-10T03:08:15;5.40;;;4.28;;
19814;SDS011;10067;53.092;8.800;2023-05-10T03:10:45;9.55;;;4.45;;
19814;SDS011;10067;53.092;8.800;2023-05-10T03:13:16;7.72;;;4.20;;
19814;SDS011;10067;53.092;8.800;2023-05-10T03:15:51;8.40;;;4.30;;
19814;SDS011;10067;53.092;8.800;2023-05-10T03:18:22;5.88;;;4.13;;
19814;SDS011;10067;53.092;8.800;2023-05-10T03:20:49;9.45;;;4.40;;
19814;SDS011;10067;53.092;8.800;2023-05-10T03:23:21;12.35;;;4.22;;
19814;SDS011;10067;53.092;8.800;2023-05-10T03:25:48;7.28;;;4.35;;
19814;SDS011;10067;53.092;8.800;2023-05-10T03:28:15;8.85;;;4.32;;
19814;SDS011;10067;53.092;8.800;2023-05-10T03:30:42;6.45;;;4.40;;
19814;SDS011;10067;53.092;8.800;2023-05-10T03:33:10;9.40;;;4.18;;
19814;SDS011;10067;53.092;8.800;2023-05-10T03:35:37;5.22;;;4.00;;
19814;SDS011;10067;53.092;8.800;2023-05-10T03:38:04;10.02;;;4.82;;
19814;SDS011;10067;53.092;8.800;2023-05-10T03:40:30;6.82;;;5.00;;
19814;SDS011;10067;53.092;8.800;2023-05-10T03:42:57;7.57;;;5.20;;
19814;SDS011;10067;53.092;8.800;2023-05-10T03:45:23;7.13;;;4.75;;
19814;SDS011;10067;53.092;8.800;2023-05-10T03:47:49;10.68;;;4.57;;
19814;SDS011;10067;53.092;8.800;2023-05-10T03:50:17;9.27;;;5.15;;
19814;SDS011;10067;53.092;8.800;2023-05-10T03:52:44;8.32;;;4.95;;
19814;SDS011;10067;53.092;8.800;2023-05-10T03:55:10;6.85;;;4.72;;
19814;SDS011;10067;53.092;8.800;2023-05-10T03:57:37;11.48;;;5.45;;
19814;SDS011;10067;53.092;8.800;2023-05-10T04:00:03;12.90;;;4.72;;
19814;SDS011;10067;53.092;8.800;2023-05-10T04:02:30;8.52;;;4.55;;
19814;SDS011;10067;53.092;8.800;2023-05-10T04:04:56;10.52;;;4.90;;
19814;SDS011;10067;53.092;8.800;2023-05-10T04:07:24;8.40;;;4.85;;
19814;SDS011;10067;53.092;8.800;2023-05-10T04:09:50;6.18;;;4.68;;
19814;SDS011;10067;53.092;8.800;2023-05-10T04:12:17;10.18;;;5.40;;
19814;SDS011;10067;53.092;8.800;2023-05-10T04:14:43;8.65;;;4.97;;
19814;SDS011;10067;53.092;8.800;2023-05-10T04:17:10;7.60;;;5.43;;
19814;SDS011;10067;53.092;8.800;2023-05-10T04:19:36;10.10;;;5.10;;
19814;SDS011;10067;53.092;8.800;2023-05-10T04:22:03;7.22;;;5.00;;
19814;SDS011;10067;53.092;8.800;2023-05-10T04:24:31;10.57;;;5.55;;
19814;SDS011;10067;53.092;8.800;2023-05-10T04:26:57;9.40;;;4.95;;
19814;SDS011;10067;53.092;8.800;2023-05-10T04:29:23;9.18;;;5.75;;
19814;SDS011;10067;53.092;8.800;2023-05-10T04:31:50;9.07;;;5.15;;
19814;SDS011;10067;53.092;8.800;2023-05-10T04:34:16;8.57;;;5.70;;
19814;SDS011;10067;53.092;8.800;2023-05-10T04:36:43;10.77;;;6.45;;
19814;SDS011;10067;53.092;8.800;2023-05-10T04:39:10;8.77;;;5.97;;
19814;SDS011;10067;53.092;8.800;2023-05-10T04:41:38;13.57;;;5.45;;
19814;SDS011;10067;53.092;8.800;2023-05-10T04:44:05;9.00;;;5.53;;
19814;SDS011;10067;53.092;8.800;2023-05-10T04:46:31;10.80;;;6.22;;
19814;SDS011;10067;53.092;8.800;2023-05-10T04:48:57;11.32;;;6.05;;
19814;SDS011;10067;53.092;8.800;2023-05-10T04:51:24;9.00;;;6.10;;
19814;SDS011;10067;53.092;8.800;2023-05-10T04:53:50;10.50;;;6.50;;
19814;SDS011;10067;53.092;8.800;2023-05-10T04:56:17;7.22;;;6.20;;
19814;SDS011;10067;53.092;8.800;2023-05-10T04:58:44;13.23;;;6.90;;
19814;SDS011;10067;53.092;8.800;2023-05-10T05:01:11;11.43;;;6.85;;
19814;SDS011;10067;53.092;8.800;2023-05-10T05:03:37;10.70;;;6.93;;
19814;SDS011;10067;53.092;8.800;2023-05-10T05:06:04;12.07;;;6.75;;
19814;SDS011;10067;53.092;8.800;2023-05-10T05:08:30;7.97;;;6.38;;
19814;SDS011;10067;53.092;8.800;2023-05-10T05:10:57;10.27;;;7.75;;
19814;SDS011;10067;53.092;8.800;2023-05-10T05:13:24;15.20;;;8.05;;
19814;SDS011;10067;53.092;8.800;2023-05-10T05:15:52;12.52;;;7.32;;
19814;SDS011;10067;53.092;8.800;2023-05-10T05:18:18;13.57;;;7.75;;
19814;SDS011;10067;53.092;8.800;2023-05-10T05:20:45;11.32;;;7.68;;
19814;SDS011;10067;53.092;8.800;2023-05-10T05:23:11;10.48;;;7.90;;
19814;SDS011;10067;53.092;8.800;2023-05-10T05:25:37;15.20;;;8.18;;
19814;SDS011;10067;53.092;8.800;2023-05-10T05:28:04;11.35;;;7.70;;
19814;SDS011;10067;53.092;8.800;2023-05-10T05:30:30;13.05;;;8.05;;
19814;SDS011;10067;53.092;8.800;2023-05-10T05:32:58;12.13;;;8.45;;
19814;SDS011;10067;53.092;8.800;2023-05-10T05:35:24;16.45;;;9.20;;
19814;SDS011;10067;53.092;8.800;2023-05-10T05:37:51;11.63;;;8.23;;
19814;SDS011;10067;53.092;8.800;2023-05-10T05:40:17;13.10;;;8.30;;
19814;SDS011;10067;53.092;8.800;2023-05-10T05:42:43;12.38;;;8.55;;
19814;SDS011;10067;53.092;8.800;2023-05-10T05:45:10;12.18;;;8.73;;
19814;SDS011;10067;53.092;8.800;2023-05-10T05:47:38;17.17;;;9.07;;
19814;SDS011;10067;53.092;8.800;2023-05-10T05:50:06;15.10;;;8.85;;
19814;SDS011;10067;53.092;8.800;2023-05-10T05:52:33;12.07;;;9.27;;
19814;SDS011;10067;53.092;8.800;2023-05-10T05:54:59;11.70;;;9.05;;
19814;SDS011;10067;53.092;8.800;2023-05-10T05:57:26;14.05;;;10.65;;
19814;SDS011;10067;53.092;8.800;2023-05-10T05:59:52;13.15;;;10.20;;
19814;SDS011;10067;53.092;8.800;2023-05-10T06:02:19;16.27;;;9.55;;
19814;SDS011;10067;53.092;8.800;2023-05-10T06:04:45;15.10;;;9.88;;
19814;SDS011;10067;53.092;8.800;2023-05-10T06:07:13;15.07;;;10.98;;
19814;SDS011;10067;53.092;8.800;2023-05-10T06:09:39;16.83;;;11.07;;
19814;SDS011;10067;53.092;8.800;2023-05-10T06:12:06;16.13;;;11.63;;
19814;SDS011;10067;53.092;8.800;2023-05-10T06:14:32;12.25;;;10.50;;
19814;SDS011;10067;53.092;8.800;2023-05-10T06:16:58;14.90;;;11.85;;
19814;SDS011;10067;53.092;8.800;2023-05-10T06:19:25;18.52;;;14.73;;
19814;SDS011;10067;53.092;8.800;2023-05-10T06:21:52;32.13;;;21.70;;
19814;SDS011;10067;53.092;8.800;2023-05-10T06:24:20;46.40;;;32.45;;
19814;SDS011;10067;53.092;8.800;2023-05-10T06:26:46;34.15;;;18.08;;
19814;SDS011;10067;53.092;8.800;2023-05-10T06:29:14;20.35;;;14.75;;
19814;SDS011;10067;53.092;8.800;2023-05-10T06:31:41;20.48;;;15.27;;
19814;SDS011;10067;53.092;8.800;2023-05-10T06:34:07;24.55;;;15.90;;
19814;SDS011;10067;53.092;8.800;2023-05-10T06:36:34;21.75;;;14.13;;
19814;SDS011;10067;53.092;8.800;2023-05-10T06:39:00;17.65;;;13.50;;
19814;SDS011;10067;53.092;8.800;2023-05-10T06:41:28;17.55;;;13.80;;
19814;SDS011;10067;53.092;8.800;2023-05-10T06:43:54;16.48;;;13.52;;
19814;SDS011;10067;53.092;8.800;2023-05-10T06:46:21;18.80;;;13.90;;
19814;SDS011;10067;53.092;8.800;2023-05-10T06:48:47;19.05;;;14.50;;
19814;SDS011;10067;53.092;8.800;2023-05-10T06:51:13;18.80;;;14.13;;
19814;SDS011;10067;53.092;8.800;2023-05-10T06:53:40;17.63;;;13.77;;
19814;SDS011;10067;53.092;8.800;2023-05-10T06:56:06;16.65;;;13.55;;
19814;SDS011;10067;53.092;8.800;2023-05-10T06:58:34;22.38;;;14.13;;
19814;SDS011;10067;53.092;8.800;2023-05-10T07:01:03;19.02;;;13.90;;
19814;SDS011;10067;53.092;8.800;2023-05-10T07:03:30;17.77;;;14.30;;
19814;SDS011;10067;53.092;8.800;2023-05-10T07:05:59;17.98;;;13.18;;
19814;SDS011;10067;53.092;8.800;2023-05-10T07:08:26;18.92;;;14.32;;
19814;SDS011;10067;53.092;8.800;2023-05-10T07:10:53;18.05;;;12.90;;
19814;SDS011;10067;53.092;8.800;2023-05-10T07:13:19;17.65;;;12.52;;
19814;SDS011;10067;53.092;8.800;2023-05-10T07:15:47;18.55;;;13.20;;
19814;SDS011;10067;53.092;8.800;2023-05-10T07:18:13;16.02;;;12.65;;
19814;SDS011;10067;53.092;8.800;2023-05-10T07:20:40;18.10;;;14.13;;
19814;SDS011;10067;53.092;8.800;2023-05-10T07:23:06;17.67;;;13.80;;
19814;SDS011;10067;53.092;8.800;2023-05-10T07:25:33;17.02;;;12.70;;
19814;SDS011;10067;53.092;8.800;2023-05-10T07:27:59;17.40;;;12.63;;
19814;SDS011;10067;53.092;8.800;2023-05-10T07:30:25;18.55;;;11.95;;
19814;SDS011;10067;53.092;8.800;2023-05-10T07:32:53;15.77;;;12.02;;
19814;SDS011;10067;53.092;8.800;2023-05-10T07:35:20;13.85;;;11.77;;
19814;SDS011;10067;53.092;8.800;2023-05-10T07:37:46;13.07;;;11.18;;
19814;SDS011;10067;53.092;8.800;2023-05-10T07:40:13;12.75;;;10.45;;
19814;SDS011;10067;53.092;8.800;2023-05-10T07:42:39;12.60;;;10.93;;
19814;SDS011;10067;53.092;8.800;2023-05-10T07:45:06;11.48;;;9.70;;
19814;SDS011;10067;53.092;8.800;2023-05-10T07:47:32;14.32;;;9.50;;
19814;SDS011;10067;53.092;8.800;2023-05-10T07:50:00;11.68;;;9.70;;
19814;SDS011;10067;53.092;8.800;2023-05-10T07:52:26;11.63;;;9.68;;
19814;SDS011;10067;53.092;8.800;2023-05-10T07:54:53;10.48;;;7.85;;
19814;SDS011;10067;53.092;8.800;2023-05-10T07:57:19;12.30;;;6.75;;
19814;SDS011;10067;53.092;8.800;2023-05-10T07:59:46;6.57;;;5.15;;
19814;SDS011;10067;53.092;8.800;2023-05-10T08:02:12;5.10;;;4.60;;
19814;SDS011;10067;53.092;8.800;2023-05-10T08:04:38;7.68;;;4.95;;
19814;SDS011;10067;53.092;8.800;2023-05-10T08:07:06;5.45;;;4.70;;
19814;SDS011;10067;53.092;8.800;2023-05-10T08:09:32;5.95;;;5.28;;
19814;SDS011;10067;53.092;8.800;2023-05-10T08:11:59;6.28;;;5.40;;
19814;SDS011;10067;53.092;8.800;2023-05-10T08:14:26;6.93;;;5.50;;
19814;SDS011;10067;53.092;8.800;2023-05-10T08:16:53;7.85;;;6.10;;
19814;SDS011;10067;53.092;8.800;2023-05-10T08:19:19;6.60;;;5.32;;
19814;SDS011;10067;53.092;8.800;2023-05-10T08:21:46;10.25;;;6.38;;
19814;SDS011;10067;53.092;8.800;2023-05-10T08:24:14;7.45;;;5.65;;
19814;SDS011;10067;53.092;8.800;2023-05-10T08:26:40;6.97;;;5.60;;
19814;SDS011;10067;53.092;8.800;2023-05-10T08:29:07;6.25;;;5.30;;
19814;SDS011;10067;53.092;8.800;2023-05-10T08:31:33;7.63;;;5.82;;
19814;SDS011;10067;53.092;8.800;2023-05-10T08:34:00;6.47;;;5.35;;
19814;SDS011;10067;53.092;8.800;2023-05-10T08:36:26;7.85;;;5.40;;
19814;SDS011;10067;53.092;8.800;2023-05-10T08:38:52;8.80;;;5.55;;
19814;SDS011;10067;53.092;8.800;2023-05-10T08:41:21;6.68;;;4.78;;
19814;SDS011;10067;53.092;8.800;2023-05-10T08:43:49;7.03;;;4.88;;
19814;SDS011;10067;53.092;8.800;2023-05-10T08:46:16;7.10;;;6.00;;
19814;SDS011;10067;53.092;8.800;2023-05-10T08:48:43;6.55;;;5.93;;
19814;SDS011;10067;53.092;8.800;2023-05-10T08:51:11;8.15;;;7.28;;
19814;SDS011;10067;53.092;8.800;2023-05-10T08:53:39;7.82;;;6.65;;
19814;SDS011;10067;53.092;8.800;2023-05-10T08:56:05;6.78;;;6.18;;
19814;SDS011;10067;53.092;8.800;2023-05-10T08:58:33;6.63;;;5.40;;
19814;SDS011;10067;53.092;8.800;2023-05-10T09:01:00;6.05;;;5.25;;
19814;SDS011;10067;53.092;8.800;2023-05-10T09:03:27;5.50;;;4.95;;
19814;SDS011;10067;53.092;8.800;2023-05-10T09:05:53;9.27;;;4.47;;
19814;SDS011;10067;53.092;8.800;2023-05-10T09:08:20;3.80;;;3.25;;
19814;SDS011;10067;53.092;8.800;2023-05-10T09:10:47;3.78;;;3.20;;
19814;SDS011;10067;53.092;8.800;2023-05-10T09:13:14;3.17;;;2.72;;
19814;SDS011;10067;53.092;8.800;2023-05-10T09:15:43;2.40;;;2.20;;
19814;SDS011;10067;53.092;8.800;2023-05-10T09:18:09;2.90;;;2.33;;
19814;SDS011;10067;53.092;8.800;2023-05-10T09:20:35;3.53;;;2.40;;
19814;SDS011;10067;53.092;8.800;2023-05-10T09:23:02;3.63;;;2.85;;
19814;SDS011;10067;53.092;8.800;2023-05-10T09:25:28;4.18;;;3.00;;
19814;SDS011;10067;53.092;8.800;2023-05-10T09:27:54;4.30;;;2.60;;
19814;SDS011;10067;53.092;8.800;2023-05-10T09:30:24;3.80;;;2.50;;
19814;SDS011;10067;53.092;8.800;2023-05-10T09:32:53;3.80;;;3.38;;
19814;SDS011;10067;53.092;8.800;2023-05-10T09:35:20;6.07;;;3.50;;
19814;SDS011;10067;53.092;8.800;2023-05-10T09:37:48;7.13;;;3.92;;
19814;SDS011;10067;53.092;8.800;2023-05-10T09:40:15;4.93;;;4.43;;
19814;SDS011;10067;53.092;8.800;2023-05-10T09:42:42;6.00;;;4.80;;
19814;SDS011;10067;53.092;8.800;2023-05-10T09:45:16;6.30;;;4.28;;
19814;SDS011;10067;53.092;8.800;2023-05-10T09:47:42;6.15;;;5.38;;
19814;SDS011;10067;53.092;8.800;2023-05-10T09:50:10;7.53;;;5.63;;
19814;SDS011;10067;53.092;8.800;2023-05-10T09:52:46;6.25;;;5.22;;
19814;SDS011;10067;53.092;8.800;2023-05-10T09:55:12;6.18;;;5.57;;
19814;SDS011;10067;53.092;8.800;2023-05-10T09:57:39;6.07;;;5.45;;
19814;SDS011;10067;53.092;8.800;2023-05-10T10:00:06;8.75;;;5.65;;
19814;SDS011;10067;53.092;8.800;2023-05-10T10:02:32;7.63;;;5.80;;
19814;SDS011;10067;53.092;8.800;2023-05-10T10:04:59;7.45;;;5.97;;
19814;SDS011;10067;53.092;8.800;2023-05-10T10:07:28;6.75;;;5.53;;
19814;SDS011;10067;53.092;8.800;2023-05-10T10:09:54;6.20;;;5.60;;
19814;SDS011;10067;53.092;8.800;2023-05-10T10:12:21;6.57;;;5.97;;
19814;SDS011;10067;53.092;8.800;2023-05-10T10:14:47;9.15;;;6.70;;
19814;SDS011;10067;53.092;8.800;2023-05-10T10:17:15;5.63;;;5.13;;
19814;SDS011;10067;53.092;8.800;2023-05-10T10:19:42;5.85;;;5.18;;
19814;SDS011;10067;53.092;8.800;2023-05-10T10:22:08;4.63;;;3.42;;
19814;SDS011;10067;53.092;8.800;2023-05-10T10:24:38;6.30;;;3.60;;
19814;SDS011;10067;53.092;8.800;2023-05-10T10:27:11;3.65;;;2.80;;
19814;SDS011;10067;53.092;8.800;2023-05-10T10:29:44;4.38;;;2.83;;
19814;SDS011;10067;53.092;8.800;2023-05-10T10:32:18;7.88;;;3.25;;
19814;SDS011;10067;53.092;8.800;2023-05-10T10:34:45;4.07;;;3.10;;
19814;SDS011;10067;53.092;8.800;2023-05-10T10:37:12;4.90;;;3.20;;
19814;SDS011;10067;53.092;8.800;2023-05-10T10:39:40;4.72;;;2.80;;
19814;SDS011;10067;53.092;8.800;2023-05-10T10:42:06;4.72;;;3.03;;
19814;SDS011;10067;53.092;8.800;2023-05-10T10:44:33;3.63;;;3.13;;
19814;SDS011;10067;53.092;8.800;2023-05-10T10:47:04;3.63;;;3.00;;
19814;SDS011;10067;53.092;8.800;2023-05-10T10:49:36;3.40;;;3.10;;
19814;SDS011;10067;53.092;8.800;2023-05-10T10:52:12;4.18;;;3.17;;
19814;SDS011;10067;53.092;8.800;2023-05-10T10:54:40;3.20;;;2.90;;
19814;SDS011;10067;53.092;8.800;2023-05-10T10:57:10;3.55;;;3.15;;
19814;SDS011;10067;53.092;8.800;2023-05-10T10:59:41;4.78;;;3.40;;
19814;SDS011;10067;53.092;8.800;2023-05-10T11:02:07;4.70;;;3.80;;
19814;SDS011;10067;53.092;8.800;2023-05-10T11:04:41;4.10;;;3.33;;
19814;SDS011;10067;53.092;8.800;2023-05-10T11:07:17;3.55;;;2.50;;
19814;SDS011;10067;53.092;8.800;2023-05-10T11:09:47;2.63;;;2.42;;
19814;SDS011;10067;53.092;8.800;2023-05-10T11:12:13;2.95;;;2.63;;
19814;SDS011;10067;53.092;8.800;2023-05-10T11:14:39;3.03;;;2.67;;
19814;SDS011;10067;53.092;8.800;2023-05-10T11:20:02;4.20;;;3.00;;
19814;SDS011;10067;53.092;8.800;2023-05-10T11:22:28;3.22;;;3.03;;
19814;SDS011;10067;53.092;8.800;2023-05-10T11:24:57;4.35;;;3.70;;
19814;SDS011;10067;53.092;8.800;2023-05-10T11:27:24;4.18;;;3.78;;
19814;SDS011;10067;53.092;8.800;2023-05-10T11:29:51;4.90;;;4.43;;
19814;SDS011;10067;53.092;8.800;2023-05-10T11:32:17;4.38;;;3.63;;
19814;SDS011;10067;53.092;8.800;2023-05-10T11:34:46;4.43;;;4.03;;
19814;SDS011;10067;53.092;8.800;2023-05-10T11:37:13;4.40;;;4.00;;
19814;SDS011;10067;53.092;8.800;2023-05-10T11:39:45;5.50;;;3.17;;
19814;SDS011;10067;53.092;8.800;2023-05-10T11:42:13;4.05;;;3.50;;
19814;SDS011;10067;53.092;8.800;2023-05-10T11:44:40;5.35;;;3.97;;
19814;SDS011;10067;53.092;8.800;2023-05-10T11:47:08;3.95;;;3.50;;
19814;SDS011;10067;53.092;8.800;2023-05-10T11:49:34;5.10;;;3.47;;
19814;SDS011;10067;53.092;8.800;2023-05-10T11:52:04;5.32;;;3.50;;
19814;SDS011;10067;53.092;8.800;2023-05-10T11:54:31;7.20;;;3.40;;
19814;SDS011;10067;53.092;8.800;2023-05-10T11:56:59;2.53;;;2.33;;
19814;SDS011;10067;53.092;8.800;2023-05-10T11:59:27;1.60;;;1.50;;
19814;SDS011;10067;53.092;8.800;2023-05-10T12:01:54;2.08;;;1.40;;
19814;SDS011;10067;53.092;8.800;2023-05-10T12:04:20;1.40;;;1.10;;
19814;SDS011;10067;53.092;8.800;2023-05-10T12:06:47;1.80;;;1.30;;
19814;SDS011;10067;53.092;8.800;2023-05-10T12:09:13;1.80;;;1.23;;
19814;SDS011;10067;53.092;8.800;2023-05-10T12:11:40;3.33;;;1.40;;
19814;SDS011;10067;53.092;8.800;2023-05-10T12:14:07;1.48;;;1.30;;
19814;SDS011;10067;53.092;8.800;2023-05-10T12:16:35;3.42;;;1.40;;
19814;SDS011;10067;53.092;8.800;2023-05-10T12:19:01;1.48;;;0.95;;
19814;SDS011;10067;53.092;8.800;2023-05-10T12:21:28;3.42;;;1.15;;
19814;SDS011;10067;53.092;8.800;2023-05-10T12:23:58;3.10;;;1.35;;
19814;SDS011;10067;53.092;8.800;2023-05-10T12:26:25;1.90;;;1.30;;
19814;SDS011;10067;53.092;8.800;2023-05-10T12:28:52;1.63;;;1.00;;
19814;SDS011;10067;53.092;8.800;2023-05-10T12:31:19;1.02;;;0.77;;
19814;SDS011;10067;53.092;8.800;2023-05-10T12:33:47;1.52;;;1.25;;
19814;SDS011;10067;53.092;8.800;2023-05-10T12:36:15;0.93;;;0.68;;
19814;SDS011;10067;53.092;8.800;2023-05-10T12:38:42;2.22;;;0.75;;
19814;SDS011;10067;53.092;8.800;2023-05-10T12:41:09;1.73;;;0.80;;
19814;SDS011;10067;53.092;8.800;2023-05-10T12:43:36;1.25;;;0.90;;
19814;SDS011;10067;53.092;8.800;2023-05-10T12:46:06;1.10;;;1.00;;
19814;SDS011;10067;53.092;8.800;2023-05-10T12:48:32;4.13;;;1.00;;
19814;SDS011;10067;53.092;8.800;2023-05-10T12:51:01;1.23;;;1.02;;
19814;SDS011;10067;53.092;8.800;2023-05-10T12:53:27;1.98;;;1.20;;
19814;SDS011;10067;53.092;8.800;2023-05-10T12:55:53;1.58;;;1.48;;
19814;SDS011;10067;53.092;8.800;2023-05-10T12:58:20;2.97;;;1.50;;
19814;SDS011;10067;53.092;8.800;2023-05-10T13:00:46;3.20;;;1.55;;
19814;SDS011;10067;53.092;8.800;2023-05-10T13:03:13;1.48;;;1.38;;
19814;SDS011;10067;53.092;8.800;2023-05-10T13:05:39;2.00;;;1.80;;
19814;SDS011;10067;53.092;8.800;2023-05-10T13:08:07;3.40;;;2.17;;
19814;SDS011;10067;53.092;8.800;2023-05-10T13:10:33;2.70;;;2.25;;
19814;SDS011;10067;53.092;8.800;2023-05-10T13:13:00;2.67;;;2.47;;
19814;SDS011;10067;53.092;8.800;2023-05-10T13:15:26;3.70;;;3.15;;
19814;SDS011;10067;53.092;8.800;2023-05-10T13:17:53;4.65;;;4.00;;
19814;SDS011;10067;53.092;8.800;2023-05-10T13:20:19;4.78;;;3.50;;
19814;SDS011;10067;53.092;8.800;2023-05-10T13:22:46;5.95;;;4.05;;
19814;SDS011;10067;53.092;8.800;2023-05-10T13:25:13;4.32;;;3.83;;
19814;SDS011;10067;53.092;8.800;2023-05-10T13:27:40;5.35;;;4.78;;
19814;SDS011;10067;53.092;8.800;2023-05-10T13:30:06;4.80;;;4.32;;
19814;SDS011;10067;53.092;8.800;2023-05-10T13:32:33;5.97;;;4.68;;
19814;SDS011;10067;53.092;8.800;2023-05-10T13:35:00;4.40;;;4.00;;
19814;SDS011;10067;53.092;8.800;2023-05-10T13:37:28;4.65;;;3.92;;
19814;SDS011;10067;53.092;8.800;2023-05-10T13:39:54;4.55;;;4.05;;
19814;SDS011;10067;53.092;8.800;2023-05-10T13:42:22;4.63;;;4.13;;
19814;SDS011;10067;53.092;8.800;2023-05-10T13:44:49;4.70;;;4.22;;
19814;SDS011;10067;53.092;8.800;2023-05-10T13:47:15;4.32;;;3.92;;
19814;SDS011;10067;53.092;8.800;2023-05-10T13:49:42;5.25;;;4.43;;
19814;SDS011;10067;53.092;8.800;2023-05-10T13:52:08;3.58;;;3.28;;
19814;SDS011;10067;53.092;8.800;2023-05-10T13:54:35;5.32;;;3.90;;
19814;SDS011;10067;53.092;8.800;2023-05-10T13:57:02;4.82;;;3.22;;
19814;SDS011;10067;53.092;8.800;2023-05-10T13:59:29;3.95;;;3.42;;
19814;SDS011;10067;53.092;8.800;2023-05-10T14:01:56;5.65;;;4.32;;
19814;SDS011;10067;53.092;8.800;2023-05-10T14:04:23;4.43;;;3.63;;
19814;SDS011;10067;53.092;8.800;2023-05-10T14:06:50;5.15;;;4.13;;
19814;SDS011;10067;53.092;8.800;2023-05-10T14:09:17;4.53;;;3.78;;
19814;SDS011;10067;53.092;8.800;2023-05-10T14:11:44;5.78;;;4.10;;
19814;SDS011;10067;53.092;8.800;2023-05-10T14:14:10;5.63;;;4.07;;
19814;SDS011;10067;53.092;8.800;2023-05-10T14:16:40;9.32;;;5.50;;
19814;SDS011;10067;53.092;8.800;2023-05-10T14:19:07;6.80;;;5.50;;
19814;SDS011;10067;53.092;8.800;2023-05-10T14:21:34;4.07;;;3.78;;
19814;SDS011;10067;53.092;8.800;2023-05-10T14:24:00;5.82;;;4.07;;
19814;SDS011;10067;53.092;8.800;2023-05-10T14:26:27;4.88;;;3.47;;
19814;SDS011;10067;53.092;8.800;2023-05-10T14:28:53;4.00;;;3.60;;
19814;SDS011;10067;53.092;8.800;2023-05-10T14:31:19;6.72;;;3.60;;
19814;SDS011;10067;53.092;8.800;2023-05-10T14:33:47;4.57;;;3.22;;
19814;SDS011;10067;53.092;8.800;2023-05-10T14:36:14;3.78;;;3.42;;
19814;SDS011;10067;53.092;8.800;2023-05-10T14:38:40;3.97;;;3.58;;
19814;SDS011;10067;53.092;8.800;2023-05-10T14:41:07;5.82;;;3.15;;
19814;SDS011;10067;53.092;8.800;2023-05-10T14:43:33;5.57;;;3.20;;
19814;SDS011;10067;53.092;8.800;2023-05-10T14:46:00;5.70;;;3.47;;
19814;SDS011;10067;53.092;8.800;2023-05-10T14:48:26;8.80;;;3.67;;
19814;SDS011;10067;53.092;8.800;2023-05-10T14:50:54;6.30;;;3.45;;